Delta Ocean — SVAU9 — position and weather

sailwx.info

Track history (hours):
 
Tides and Currents Weather Stations Pressure Air Temp Water Temp Dewpoint Dewpoint Depression Visibility Wind Speed Wind Dir Waves Ship Positions

Delta Ocean

Last reported at 2016-Dec-31 22:26 UTC. Time now 2017-Jan-20 18:07 UTC.
Position N 14°40' W 018°02'.
Warning: this ship's position is 19 days out of date.

Length 274 m; draft 9 m.

Type: Tanker. MMSI: 240958000.

Date/timePositionNaut miles runAvg speedWind from/ knotsBaromVisibWave heightAir tempDewpointWater temp
2016-Dec-31 22:26N 14°40' W 018°02'1314.9
2016-Dec-31 21:33N 14°53' W 018°02'  
2016-Dec-29 16:33N 27°37' W 015°13'1514.6
2016-Dec-29 15:33N 27°51' W 015°07'1514.7
2016-Dec-29 14:33N 28°04' W 015°02'1414.5
2016-Dec-29 13:33N 28°18' W 014°56'1414.2
2016-Dec-29 12:33N 28°30' W 014°48'1414.4
2016-Dec-29 11:34N 28°42' W 014°38'62814.8
2016-Dec-27 17:09N 35°57' W 005°42'812.9
2016-Dec-27 16:33N 35°58' W 005°33'1211.5
2016-Dec-27 15:33N 36°06' W 005°22'2 1.5
2016-Dec-27 14:29N 36°08' W 005°23'0 0.2
2016-Dec-27 13:32N 36°07' W 005°23'0 0.0
2016-Dec-27 08:29N 36°08' W 005°23'0 0.0
2016-Dec-27 07:32N 36°08' W 005°22'0 0.2
2016-Dec-27 06:32N 36°07' W 005°23'0 0.0
2016-Dec-27 04:32N 36°07' W 005°22'0 0.0
2016-Dec-27 03:32N 36°07' W 005°22'0 0.0
2016-Dec-27 02:32N 36°07' W 005°22'0 0.0
2016-Dec-27 01:26N 36°07' W 005°22'0 0.3
2016-Dec-27 00:32N 36°08' W 005°22'0 0.2
2016-Dec-26 23:32N 36°08' W 005°22'0 0.1
2016-Dec-26 22:32N 36°08' W 005°22'0 0.1
2016-Dec-26 21:32N 36°08' W 005°22'0 0.2
2016-Dec-26 20:29N 36°07' W 005°22'2 2.4
2016-Dec-26 19:33N 36°05' W 005°21'5 5.2
2016-Dec-26 18:33N 36°07' W 005°15'5 5.4
2016-Dec-26 17:33N 36°12' W 005°12'1 1.3
2016-Dec-26 16:31N 36°11' W 005°11'1 1.0
2016-Dec-26 15:33N 36°10' W 005°11'1 0.9
2016-Dec-26 14:33N 36°09' W 005°10'1 1.5
2016-Dec-26 13:33N 36°09' W 005°12'1 1.0
2016-Dec-26 12:31N 36°10' W 005°12'1 1.0
2016-Dec-26 11:33N 36°10' W 005°11'1 1.2
2016-Dec-26 10:31N 36°09' W 005°10'3 2.9
2016-Dec-26 09:33N 36°06' W 005°11'1 1.0
2016-Dec-26 08:33N 36°06' W 005°10'1 0.6
2016-Dec-26 07:33N 36°06' W 005°10'3 3.4
2016-Dec-26 06:33N 36°07' W 005°06'9712.9
2016-Dec-25 23:05N 36°20' W 003°07'814.0
2016-Dec-25 22:32N 36°21' W 002°58'1514.2
2016-Dec-25 21:29N 36°24' W 002°39'1414.2
2016-Dec-25 20:28N 36°26' W 002°22'1414.2
2016-Dec-25 19:29N 36°27' W 002°04'22514.1
2016-Dec-25 03:33N 37°24' E 002°28'1414.2
2016-Dec-25 02:33N 37°28' E 002°46'28614.3
2016-Dec-24 06:33N 38°40' E 008°37'1414.3
2016-Dec-24 05:33N 38°45' E 008°54'1413.9
2016-Dec-24 04:33N 38°54' E 009°07'1212.0
2016-Dec-24 03:32N 39°06' E 009°06'2 2.2
2016-Dec-24 02:32N 39°05' E 009°03'0 0.0
2016-Dec-24 01:32N 39°05' E 009°03'0 0.0
2016-Dec-24 00:32N 39°05' E 009°03'0 0.0
2016-Dec-23 23:32N 39°05' E 009°03'0 0.0
2016-Dec-23 22:32N 39°05' E 009°03'0 0.0
2016-Dec-23 21:32N 39°05' E 009°03'0 0.0
2016-Dec-23 20:32N 39°05' E 009°03'0 0.0
2016-Dec-23 19:32N 39°05' E 009°03'0 0.0
2016-Dec-23 18:32N 39°05' E 009°03'0 0.1
2016-Dec-23 17:32N 39°05' E 009°03'0 0.1
2016-Dec-23 16:32N 39°05' E 009°03'0 0.0
2016-Dec-23 15:32N 39°05' E 009°03'0 0.0
2016-Dec-23 14:32N 39°05' E 009°03'0 0.0
2016-Dec-23 13:32N 39°05' E 009°03'0 0.0
2016-Dec-23 12:32N 39°05' E 009°03'0 0.0
2016-Dec-23 11:32N 39°05' E 009°03'0 0.0
2016-Dec-23 10:32N 39°05' E 009°03'0 0.0
2016-Dec-23 09:32N 39°05' E 009°03'0 0.0
2016-Dec-23 08:32N 39°05' E 009°03'0 0.0
2016-Dec-23 07:32N 39°05' E 009°03'0 0.0
2016-Dec-23 06:32N 39°05' E 009°03'0 0.0
2016-Dec-23 05:32N 39°05' E 009°03'0 0.0
2016-Dec-23 04:23N 39°05' E 009°03'0 0.0
2016-Dec-23 03:32N 39°05' E 009°03'0 0.0
2016-Dec-23 02:32N 39°05' E 009°03'0 0.0
2016-Dec-23 01:32N 39°05' E 009°03'0 0.0
2016-Dec-23 00:32N 39°05' E 009°03'0 0.0
2016-Dec-22 23:32N 39°05' E 009°03'0 0.0
2016-Dec-22 22:32N 39°05' E 009°03'0 0.0
2016-Dec-22 21:32N 39°05' E 009°03'0 0.0
2016-Dec-22 20:32N 39°05' E 009°03'0 0.0
2016-Dec-22 19:32N 39°05' E 009°03'0 0.0
2016-Dec-22 18:32N 39°05' E 009°03'0 0.0
2016-Dec-22 17:32N 39°05' E 009°03'0 0.0
2016-Dec-22 16:32N 39°05' E 009°03'0 0.0
2016-Dec-22 15:32N 39°05' E 009°03'0 0.0
2016-Dec-22 14:32N 39°05' E 009°03'0 0.0
2016-Dec-22 13:32N 39°05' E 009°03'0 0.0
2016-Dec-22 12:32N 39°05' E 009°03'0 0.0
2016-Dec-22 11:33N 39°05' E 009°03'0 0.0
2016-Dec-22 10:33N 39°05' E 009°03'0 0.0
2016-Dec-22 09:33N 39°05' E 009°03'3 3.1
2016-Dec-22 08:33N 39°03' E 009°06'0 0.2
2016-Dec-22 07:32N 39°03' E 009°06'0 0.0
2016-Dec-22 06:32N 39°03' E 009°06'0 0.1
2016-Dec-22 05:32N 39°03' E 009°06'0 0.1
2016-Dec-22 04:32N 39°03' E 009°06'0 0.1
2016-Dec-22 03:32N 39°03' E 009°06'0 0.1
2016-Dec-22 02:32N 39°03' E 009°06'0 0.0
2016-Dec-22 01:33N 39°03' E 009°06'0 0.0
2016-Dec-22 00:32N 39°03' E 009°06'0 0.0
2016-Dec-21 23:32N 39°03' E 009°06'0 0.0
2016-Dec-21 22:32N 39°03' E 009°06'  
Track history (hours):
 
Tides and Currents Weather Stations Pressure Air Temp Water Temp Dewpoint Dewpoint Depression Visibility Wind Speed Wind Dir Waves Ship Positions

Delta Ocean

Last reported at 2016-Dec-31 22:26 UTC. Time now 2017-Jan-20 18:07 UTC.
Position N 14°40' W 018°02'.
Warning: this ship's position is 19 days out of date.

Length 274 m; draft 9 m.

Type: Tanker. MMSI: 240958000.

Date/timePositionNaut miles runAvg speedWind from/ knotsBaromVisibWave heightAir tempDewpointWater temp
2016-Dec-31 22:26N 14°40' W 018°02'1314.9
2016-Dec-31 21:33N 14°53' W 018°02'  
2016-Dec-29 16:33N 27°37' W 015°13'1514.6
2016-Dec-29 15:33N 27°51' W 015°07'1514.7
2016-Dec-29 14:33N 28°04' W 015°02'1414.5
2016-Dec-29 13:33N 28°18' W 014°56'1414.2
2016-Dec-29 12:33N 28°30' W 014°48'1414.4
2016-Dec-29 11:34N 28°42' W 014°38'62814.8
2016-Dec-27 17:09N 35°57' W 005°42'812.9
2016-Dec-27 16:33N 35°58' W 005°33'1211.5
2016-Dec-27 15:33N 36°06' W 005°22'2 1.5
2016-Dec-27 14:29N 36°08' W 005°23'0 0.2
2016-Dec-27 13:32N 36°07' W 005°23'0 0.0
2016-Dec-27 08:29N 36°08' W 005°23'0 0.0
2016-Dec-27 07:32N 36°08' W 005°22'0 0.2
2016-Dec-27 06:32N 36°07' W 005°23'0 0.0
2016-Dec-27 04:32N 36°07' W 005°22'0 0.0
2016-Dec-27 03:32N 36°07' W 005°22'0 0.0
2016-Dec-27 02:32N 36°07' W 005°22'0 0.0
2016-Dec-27 01:26N 36°07' W 005°22'0 0.3
2016-Dec-27 00:32N 36°08' W 005°22'0 0.2
2016-Dec-26 23:32N 36°08' W 005°22'0 0.1
2016-Dec-26 22:32N 36°08' W 005°22'0 0.1
2016-Dec-26 21:32N 36°08' W 005°22'0 0.2
2016-Dec-26 20:29N 36°07' W 005°22'2 2.4
2016-Dec-26 19:33N 36°05' W 005°21'5 5.2
2016-Dec-26 18:33N 36°07' W 005°15'5 5.4
2016-Dec-26 17:33N 36°12' W 005°12'1 1.3
2016-Dec-26 16:31N 36°11' W 005°11'1 1.0
2016-Dec-26 15:33N 36°10' W 005°11'1 0.9
2016-Dec-26 14:33N 36°09' W 005°10'1 1.5
2016-Dec-26 13:33N 36°09' W 005°12'1 1.0
2016-Dec-26 12:31N 36°10' W 005°12'1 1.0
2016-Dec-26 11:33N 36°10' W 005°11'1 1.2
2016-Dec-26 10:31N 36°09' W 005°10'3 2.9
2016-Dec-26 09:33N 36°06' W 005°11'1 1.0
2016-Dec-26 08:33N 36°06' W 005°10'1 0.6
2016-Dec-26 07:33N 36°06' W 005°10'3 3.4
2016-Dec-26 06:33N 36°07' W 005°06'9712.9
2016-Dec-25 23:05N 36°20' W 003°07'814.0
2016-Dec-25 22:32N 36°21' W 002°58'1514.2
2016-Dec-25 21:29N 36°24' W 002°39'1414.2
2016-Dec-25 20:28N 36°26' W 002°22'1414.2
2016-Dec-25 19:29N 36°27' W 002°04'22514.1
2016-Dec-25 03:33N 37°24' E 002°28'1414.2
2016-Dec-25 02:33N 37°28' E 002°46'28614.3
2016-Dec-24 06:33N 38°40' E 008°37'1414.3
2016-Dec-24 05:33N 38°45' E 008°54'1413.9
2016-Dec-24 04:33N 38°54' E 009°07'1212.0
2016-Dec-24 03:32N 39°06' E 009°06'2 2.2
2016-Dec-24 02:32N 39°05' E 009°03'0 0.0
2016-Dec-24 01:32N 39°05' E 009°03'0 0.0
2016-Dec-24 00:32N 39°05' E 009°03'0 0.0
2016-Dec-23 23:32N 39°05' E 009°03'0 0.0
2016-Dec-23 22:32N 39°05' E 009°03'0 0.0
2016-Dec-23 21:32N 39°05' E 009°03'0 0.0
2016-Dec-23 20:32N 39°05' E 009°03'0 0.0
2016-Dec-23 19:32N 39°05' E 009°03'0 0.0
2016-Dec-23 18:32N 39°05' E 009°03'0 0.1
2016-Dec-23 17:32N 39°05' E 009°03'0 0.1
2016-Dec-23 16:32N 39°05' E 009°03'0 0.0
2016-Dec-23 15:32N 39°05' E 009°03'0 0.0
2016-Dec-23 14:32N 39°05' E 009°03'0 0.0
2016-Dec-23 13:32N 39°05' E 009°03'0 0.0
2016-Dec-23 12:32N 39°05' E 009°03'0 0.0
2016-Dec-23 11:32N 39°05' E 009°03'0 0.0
2016-Dec-23 10:32N 39°05' E 009°03'0 0.0
2016-Dec-23 09:32N 39°05' E 009°03'0 0.0
2016-Dec-23 08:32N 39°05' E 009°03'0 0.0
2016-Dec-23 07:32N 39°05' E 009°03'0 0.0
2016-Dec-23 06:32N 39°05' E 009°03'0 0.0
2016-Dec-23 05:32N 39°05' E 009°03'0 0.0
2016-Dec-23 04:23N 39°05' E 009°03'0 0.0
2016-Dec-23 03:32N 39°05' E 009°03'0 0.0
2016-Dec-23 02:32N 39°05' E 009°03'0 0.0
2016-Dec-23 01:32N 39°05' E 009°03'0 0.0
2016-Dec-23 00:32N 39°05' E 009°03'0 0.0
2016-Dec-22 23:32N 39°05' E 009°03'0 0.0
2016-Dec-22 22:32N 39°05' E 009°03'0 0.0
2016-Dec-22 21:32N 39°05' E 009°03'0 0.0
2016-Dec-22 20:32N 39°05' E 009°03'0 0.0
2016-Dec-22 19:32N 39°05' E 009°03'0 0.0
2016-Dec-22 18:32N 39°05' E 009°03'0 0.0
2016-Dec-22 17:32N 39°05' E 009°03'0 0.0
2016-Dec-22 16:32N 39°05' E 009°03'0 0.0
2016-Dec-22 15:32N 39°05' E 009°03'0 0.0
2016-Dec-22 14:32N 39°05' E 009°03'0 0.0
2016-Dec-22 13:32N 39°05' E 009°03'0 0.0
2016-Dec-22 12:32N 39°05' E 009°03'0 0.0
2016-Dec-22 11:33N 39°05' E 009°03'0 0.0
2016-Dec-22 10:33N 39°05' E 009°03'0 0.0
2016-Dec-22 09:33N 39°05' E 009°03'3 3.1
2016-Dec-22 08:33N 39°03' E 009°06'0 0.2
2016-Dec-22 07:32N 39°03' E 009°06'0 0.0
2016-Dec-22 06:32N 39°03' E 009°06'0 0.1
2016-Dec-22 05:32N 39°03' E 009°06'0 0.1
2016-Dec-22 04:32N 39°03' E 009°06'0 0.1
2016-Dec-22 03:32N 39°03' E 009°06'0 0.1
2016-Dec-22 02:32N 39°03' E 009°06'0 0.0
2016-Dec-22 01:33N 39°03' E 009°06'0 0.0
2016-Dec-22 00:32N 39°03' E 009°06'0 0.0
2016-Dec-21 23:32N 39°03' E 009°06'0 0.0
2016-Dec-21 22:32N 39°03' E 009°06'  

Dump ship's entire track history